Hovedside
METAR-TAF:

METAR-TAF

Lufthavner :

Vitebsk, Hviterussland

breddegrad: 55-10N, lengdegrad: 030-13E, høyde over havet: 176 m

Gjeldene værobservasjon

Denne rapporten ble laget for 9 timer og 33 minutter siden, klokken 16:00 UTC
Vind 8 kt fra Sør-sørøst
Temperatur 1°C
Luftfuktighet 100%
Trykk 1001 hPa
Sikt: 0700 m
tåke

METAR: UMII 101600Z 16004MPS 0700 R23/1500 FG VV001 01/01 Q1001 R23/820350 TEMPO 0500 RMK QBB050

Tid: 04:33 (01:33 UTC)

Varsel

Denne rapporten ble laget for 11 timer og 28 minutter siden, klokken 14:05 UTC
Varsel gyldig fra 10. klokken 15 UTC til 10. klokken 24 UTC
Vind 10 kt fra Sør med vindkast opp mot 19 kt
Sikt: 2000 m
Overskyet i en høyde av 400 ft
snø, regn, dis
Midlertidig
fra 10. klokken 15 UTC til 10. klokken 24 UTC
Sikt: 0500 m
Overskyet i en høyde av 200 ft
Brutte skyer i en høyde av 1000 ft, Bygeskyer.
snøbyger, regn, tåke

TAF: UMII 101405Z 1015/1024 17005G10MPS 2000 SNRA BR OVC004 TEMPO 1015/1024 0500 SHSNRA FG OVC002 BKN010CB

Værobservasjoner og værvarsel for over 4000 flyplasser (METAR- og TAF-rapporter).

Tilgjengelige stasjoner er representert av de røde og gule prikkene på kartet.

Hold musepekeren over prikken for å se navnet på stasjonen.

Klikk så for å se værobservasjoner og -varsler.

For å forandre kartet kan du klikke på den grønne knappen med svart kryss for å zoome inn, på den grønne knappen med strek for å zoome ut, eller på de grønne pilene for å se tilstøtende kart.


METAR-TAF: